Time;durP1;ratioP1;P1;durP2;ratioP2;P2;SDS_P1;SDS_P2;PMS_P1;PMS_P2;Temp;Humidity;BMP_temperature;BMP_pressure;BME280_temperature;BME280_humidity;BME280_pressure;Samples;Min_cycle;Max_cycle;Signal;HPM_P1;HPM_P2
2023/08/22 00:02:45;;;;;;;13.07;7.70;;;;;;;;;;6245046;23;20193;-91
2023/08/22 00:05:50;;;;;;;17.10;8.23;;;;;;;;;;6245117;23;20166;-94
2023/08/22 00:08:56;;;;;;;17.60;8.98;;;;;;;;;;6245154;23;20213;-92
2023/08/22 00:12:01;;;;;;;14.95;9.05;;;;;;;;;;6247484;22;20167;-94
2023/08/22 00:15:10;;;;;;;17.27;9.55;;;;;;;;;;6247448;22;20174;-92
2023/08/22 00:18:15;;;;;;;17.08;9.38;;;;;;;;;;6247790;22;20154;-93
2023/08/22 00:21:21;;;;;;;14.38;8.85;;;;;;;;;;6248754;23;20194;-93
2023/08/22 00:24:26;;;;;;;18.50;9.10;;;;;;;;;;6246774;23;20165;-91
2023/08/22 00:27:34;;;;;;;13.70;8.18;;;;;;;;;;6246919;22;20178;-94
2023/08/22 00:30:41;;;;;;;21.33;10.10;;;;;;;;;;6245657;22;20219;-91
2023/08/22 00:33:46;;;;;;;17.25;9.50;;;;;;;;;;6244378;22;20178;-94
2023/08/22 00:36:51;;;;;;;17.67;9.48;;;;;;;;;;6244178;23;20170;-91
2023/08/22 00:39:57;;;;;;;15.32;9.55;;;;;;;;;;6243024;23;20163;-91
2023/08/22 00:43:03;;;;;;;19.55;9.30;;;;;;;;;;6243266;22;20198;-91
2023/08/22 00:46:10;;;;;;;15.90;9.20;;;;;;;;;;6243869;22;20194;-92
2023/08/22 00:49:16;;;;;;;21.50;9.98;;;;;;;;;;6244502;22;20186;-93
2023/08/22 00:52:21;;;;;;;15.75;9.70;;;;;;;;;;6244770;23;20190;-91
2023/08/22 00:55:27;;;;;;;15.38;10.43;;;;;;;;;;6244938;23;20243;-94
2023/08/22 00:58:33;;;;;;;19.98;10.88;;;;;;;;;;6244654;23;20239;-92
2023/08/22 01:01:40;;;;;;;19.50;10.57;;;;;;;;;;6245647;23;20194;-92
2023/08/22 01:04:46;;;;;;;19.80;11.00;;;;;;;;;;6244337;23;20235;-91
2023/08/22 01:07:54;;;;;;;19.27;10.32;;;;;;;;;;6243820;23;20605;-92
2023/08/22 01:11:05;;;;;;;16.08;10.35;;;;;;;;;;6244431;23;20220;-93
2023/08/22 01:14:12;;;;;;;14.00;9.70;;;;;;;;;;6243546;22;20179;-91
2023/08/22 01:17:19;;;;;;;16.98;10.10;;;;;;;;;;6244081;22;20154;-92
2023/08/22 01:20:26;;;;;;;17.88;10.07;;;;;;;;;;6244972;23;20206;-91
2023/08/22 01:23:33;;;;;;;21.38;9.70;;;;;;;;;;6245023;23;20198;-90
2023/08/22 01:26:39;;;;;;;16.73;9.55;;;;;;;;;;6246161;23;20174;-92
2023/08/22 01:29:47;;;;;;;16.65;9.20;;;;;;;;;;6244800;22;20167;-92
2023/08/22 01:32:53;;;;;;;18.05;8.60;;;;;;;;;;6246168;22;20203;-92
2023/08/22 01:35:58;;;;;;;19.98;8.88;;;;;;;;;;6244119;22;20216;-91
2023/08/22 01:39:07;;;;;;;16.20;9.30;;;;;;;;;;6246406;22;20197;-91
2023/08/22 01:42:14;;;;;;;17.50;9.85;;;;;;;;;;6246019;23;20205;-93
2023/08/22 01:45:19;;;;;;;18.15;9.55;;;;;;;;;;6245634;23;20269;-91
2023/08/22 01:48:25;;;;;;;23.77;9.63;;;;;;;;;;6245716;22;20146;-91
2023/08/22 01:51:30;;;;;;;16.52;9.63;;;;;;;;;;6245569;22;20213;-91
2023/08/22 01:54:38;;;;;;;17.08;10.43;;;;;;;;;;6245803;22;20223;-91
2023/08/22 01:57:44;;;;;;;28.55;11.57;;;;;;;;;;6247246;22;20214;-91
2023/08/22 02:00:49;;;;;;;15.25;10.18;;;;;;;;;;6246037;23;20163;-91
2023/08/22 02:03:54;;;;;;;20.77;9.85;;;;;;;;;;6246853;22;20174;-92
2023/08/22 02:06:59;;;;;;;17.35;10.35;;;;;;;;;;6245743;23;20158;-92
2023/08/22 02:10:06;;;;;;;22.25;10.90;;;;;;;;;;6244989;22;20170;-90
2023/08/22 02:13:11;;;;;;;18.80;9.80;;;;;;;;;;6245018;22;20175;-92
2023/08/22 02:16:17;;;;;;;15.05;9.80;;;;;;;;;;6246170;23;20488;-92
2023/08/22 02:19:22;;;;;;;14.88;10.38;;;;;;;;;;6246040;22;20166;-91
2023/08/22 02:22:28;;;;;;;16.98;10.25;;;;;;;;;;6244761;22;20174;-94
2023/08/22 02:25:35;;;;;;;15.00;10.00;;;;;;;;;;6244877;23;20162;-91
2023/08/22 02:28:40;;;;;;;19.42;9.85;;;;;;;;;;6244757;22;20197;-91
2023/08/22 02:31:45;;;;;;;19.98;9.50;;;;;;;;;;6247103;23;20177;-91
2023/08/22 02:34:52;;;;;;;17.60;9.98;;;;;;;;;;6245749;23;20162;-91
2023/08/22 02:37:57;;;;;;;19.23;9.90;;;;;;;;;;6245723;22;20153;-92
2023/08/22 02:41:04;;;;;;;16.80;9.35;;;;;;;;;;6246477;22;20163;-92
2023/08/22 02:44:12;;;;;;;19.42;9.95;;;;;;;;;;6247045;22;20178;-91
2023/08/22 02:47:17;;;;;;;15.50;9.57;;;;;;;;;;6247261;23;20162;-91
2023/08/22 02:50:23;;;;;;;13.50;9.40;;;;;;;;;;6246332;23;20166;-90
2023/08/22 02:53:29;;;;;;;17.92;9.32;;;;;;;;;;6245661;22;20177;-90
2023/08/22 02:56:35;;;;;;;18.42;9.02;;;;;;;;;;6247531;23;20166;-96
2023/08/22 02:59:41;;;;;;;13.55;8.93;;;;;;;;;;6247339;22;20170;-90
2023/08/22 03:02:46;;;;;;;16.70;8.00;;;;;;;;;;6263149;22;20569;-92
2023/08/22 03:05:52;;;;;;;14.38;9.20;;;;;;;;;;6243791;23;20161;-92
2023/08/22 03:08:57;;;;;;;15.50;9.07;;;;;;;;;;6242631;22;20167;-91
2023/08/22 03:12:05;;;;;;;12.27;9.05;;;;;;;;;;6244412;22;20174;-92
2023/08/22 03:15:11;;;;;;;13.27;9.50;;;;;;;;;;6242578;23;20158;-93
2023/08/22 03:18:19;;;;;;;15.60;9.80;;;;;;;;;;6245518;23;20186;-93
2023/08/22 03:21:26;;;;;;;18.85;9.15;;;;;;;;;;6243388;23;20166;-92
2023/08/22 03:24:32;;;;;;;16.38;9.60;;;;;;;;;;6244520;22;20162;-92
2023/08/22 03:27:40;;;;;;;17.75;9.57;;;;;;;;;;6243001;23;20166;-92
2023/08/22 03:30:46;;;;;;;19.83;9.30;;;;;;;;;;6243075;23;20175;-92
2023/08/22 03:33:52;;;;;;;16.98;9.75;;;;;;;;;;6243584;23;20198;-92
2023/08/22 03:36:57;;;;;;;19.05;9.75;;;;;;;;;;6243198;23;20286;-94
2023/08/22 03:40:03;;;;;;;20.30;10.07;;;;;;;;;;6244612;22;20170;-91
2023/08/22 03:43:10;;;;;;;20.98;9.95;;;;;;;;;;6245180;22;20194;-94
2023/08/22 03:46:18;;;;;;;14.13;9.02;;;;;;;;;;6245769;23;20189;-91
2023/08/22 03:49:23;;;;;;;17.00;10.55;;;;;;;;;;6243891;23;20169;-91
2023/08/22 03:52:29;;;;;;;16.95;9.77;;;;;;;;;;6242690;22;20165;-91
2023/08/22 03:55:34;;;;;;;17.05;9.45;;;;;;;;;;6260181;22;20169;-90
2023/08/22 03:58:44;;;;;;;18.95;9.52;;;;;;;;;;6243718;22;20241;-93
2023/08/22 04:01:53;;;;;;;14.55;9.27;;;;;;;;;;6245075;23;20182;-91
2023/08/22 04:04:59;;;;;;;18.75;10.07;;;;;;;;;;6245051;22;20689;-93
2023/08/22 04:08:05;;;;;;;14.95;9.43;;;;;;;;;;6244127;22;20166;-91
2023/08/22 04:11:10;;;;;;;16.55;9.40;;;;;;;;;;6244822;22;20245;-92
2023/08/22 04:14:18;;;;;;;16.88;9.50;;;;;;;;;;6245333;22;20169;-92
2023/08/22 04:17:23;;;;;;;18.17;9.70;;;;;;;;;;6244044;23;20186;-91
2023/08/22 04:20:30;;;;;;;16.02;9.82;;;;;;;;;;6246344;23;20238;-91
2023/08/22 04:23:36;;;;;;;18.73;10.85;;;;;;;;;;6243629;22;20229;-90
2023/08/22 04:26:46;;;;;;;18.50;10.95;;;;;;;;;;6244867;22;20162;-92
2023/08/22 04:29:53;;;;;;;19.05;11.20;;;;;;;;;;6243463;22;20155;-92
2023/08/22 04:32:58;;;;;;;22.10;11.52;;;;;;;;;;6243618;22;20229;-92
2023/08/22 04:36:06;;;;;;;20.20;10.73;;;;;;;;;;6243167;23;20231;-91
2023/08/22 04:39:12;;;;;;;23.08;10.55;;;;;;;;;;6246111;22;20190;-90
2023/08/22 04:42:18;;;;;;;16.10;10.13;;;;;;;;;;6244840;22;20162;-90
2023/08/22 04:45:31;;;;;;;19.10;10.27;;;;;;;;;;6243555;23;20170;-91
2023/08/22 04:48:37;;;;;;;16.83;10.75;;;;;;;;;;6243867;23;20577;-93
2023/08/22 04:51:42;;;;;;;19.58;10.63;;;;;;;;;;6242238;23;20166;-89
2023/08/22 04:54:47;;;;;;;19.55;10.73;;;;;;;;;;6245742;22;20261;-90
2023/08/22 04:57:52;;;;;;;16.75;10.43;;;;;;;;;;6242002;22;20159;-92
2023/08/22 05:00:59;;;;;;;18.15;9.63;;;;;;;;;;6240865;23;20162;-89
2023/08/22 05:04:12;;;;;;;16.40;9.27;;;;;;;;;;6242948;23;20195;-91
2023/08/22 05:07:17;;;;;;;16.25;10.00;;;;;;;;;;6241026;23;20166;-88
2023/08/22 05:10:24;;;;;;;21.65;10.50;;;;;;;;;;6242235;22;20163;-91
2023/08/22 05:13:29;;;;;;;21.20;10.00;;;;;;;;;;6240994;23;20213;-90
2023/08/22 05:16:35;;;;;;;15.32;9.70;;;;;;;;;;6239903;23;20627;-89
2023/08/22 05:19:44;;;;;;;13.45;8.70;;;;;;;;;;6240241;23;20594;-90
2023/08/22 05:22:50;;;;;;;14.85;8.65;;;;;;;;;;6239787;22;20179;-88
2023/08/22 05:25:56;;;;;;;18.88;9.07;;;;;;;;;;6243395;22;20189;-89
2023/08/22 05:29:02;;;;;;;15.40;8.60;;;;;;;;;;6242962;23;20509;-89
2023/08/22 05:32:09;;;;;;;16.70;8.93;;;;;;;;;;6243286;23;20479;-90
2023/08/22 05:35:15;;;;;;;16.10;8.90;;;;;;;;;;6243973;22;20166;-89
2023/08/22 05:38:21;;;;;;;12.43;8.60;;;;;;;;;;6244096;23;20195;-90
2023/08/22 05:41:26;;;;;;;15.25;9.18;;;;;;;;;;6242355;22;20290;-89
2023/08/22 05:44:32;;;;;;;14.23;9.38;;;;;;;;;;6241245;23;20240;-90
2023/08/22 05:47:39;;;;;;;17.95;10.30;;;;;;;;;;6240157;23;20166;-89
2023/08/22 05:50:44;;;;;;;24.58;11.95;;;;;;;;;;6238203;23;20210;-91
2023/08/22 05:53:50;;;;;;;19.60;11.00;;;;;;;;;;6239344;22;20158;-89
2023/08/22 05:56:55;;;;;;;18.35;10.77;;;;;;;;;;6237926;22;20171;-88
2023/08/22 06:00:03;;;;;;;17.15;8.93;;;;;;;;;;6241461;22;20218;-89
2023/08/22 06:03:12;;;;;;;20.20;9.50;;;;;;;;;;6258179;23;20198;-90
2023/08/22 06:06:17;;;;;;;19.98;8.88;;;;;;;;;;6240014;22;20214;-91
2023/08/22 06:09:22;;;;;;;14.48;8.27;;;;;;;;;;6242015;22;20170;-90
2023/08/22 06:12:28;;;;;;;14.27;7.93;;;;;;;;;;6239412;23;20166;-89
2023/08/22 06:15:34;;;;;;;14.73;7.90;;;;;;;;;;6241261;23;20191;-90
2023/08/22 06:18:41;;;;;;;20.48;8.18;;;;;;;;;;6239414;23;20170;-90
2023/08/22 06:21:46;;;;;;;13.38;7.53;;;;;;;;;;6240778;22;20202;-89
2023/08/22 06:24:51;;;;;;;13.20;7.90;;;;;;;;;;6240757;22;20513;-91
2023/08/22 06:27:56;;;;;;;10.80;7.55;;;;;;;;;;6240293;23;20167;-89
2023/08/22 06:31:06;;;;;;;11.60;7.40;;;;;;;;;;6242432;23;20167;-90
2023/08/22 06:34:15;;;;;;;16.63;7.40;;;;;;;;;;6239618;22;20193;-92
2023/08/22 06:37:20;;;;;;;11.05;7.93;;;;;;;;;;6243143;23;20174;-92
2023/08/22 06:40:25;;;;;;;14.60;7.82;;;;;;;;;;6240565;22;20186;-91
2023/08/22 06:43:30;;;;;;;10.05;7.45;;;;;;;;;;6238166;23;20313;-91
2023/08/22 06:46:37;;;;;;;13.40;7.90;;;;;;;;;;6240936;23;20241;-93
2023/08/22 06:49:47;;;;;;;12.60;7.13;;;;;;;;;;6240033;23;20484;-91
2023/08/22 06:52:53;;;;;;;12.38;7.85;;;;;;;;;;6242244;22;20198;-92
2023/08/22 06:56:05;;;;;;;14.70;7.70;;;;;;;;;;6242171;23;20541;-90
2023/08/22 06:59:10;;;;;;;12.73;8.00;;;;;;;;;;6242138;23;20162;-92
2023/08/22 07:02:15;;;;;;;17.42;8.30;;;;;;;;;;6242492;23;20230;-89
2023/08/22 07:05:23;;;;;;;15.15;8.23;;;;;;;;;;6226182;23;20178;-89
2023/08/22 07:08:28;;;;;;;15.88;7.93;;;;;;;;;;6240565;22;20162;-90
2023/08/22 07:11:34;;;;;;;16.92;8.80;;;;;;;;;;6238210;23;20162;-91
2023/08/22 07:14:42;;;;;;;16.60;8.43;;;;;;;;;;6238950;23;20175;-91
2023/08/22 07:17:47;;;;;;;18.08;8.95;;;;;;;;;;6238568;23;20245;-91
2023/08/22 07:20:57;;;;;;;13.43;8.77;;;;;;;;;;6239231;23;20174;-88
2023/08/22 07:24:04;;;;;;;13.55;8.27;;;;;;;;;;6239111;23;20194;-92
2023/08/22 07:27:11;;;;;;;13.85;8.43;;;;;;;;;;6240570;23;20724;-91
2023/08/22 07:30:21;;;;;;;13.95;8.30;;;;;;;;;;6241470;23;20185;-89
2023/08/22 07:33:25;;;;;;;14.45;8.93;;;;;;;;;;6237467;23;20297;-91
2023/08/22 07:36:32;;;;;;;19.85;9.77;;;;;;;;;;6239268;23;20177;-90
2023/08/22 07:39:37;;;;;;;14.77;8.50;;;;;;;;;;6240870;23;20282;-91
2023/08/22 07:42:42;;;;;;;16.60;8.85;;;;;;;;;;6238906;23;20166;-91
2023/08/22 07:45:47;;;;;;;18.60;9.02;;;;;;;;;;6239927;23;20193;-90
2023/08/22 07:48:52;;;;;;;14.98;8.10;;;;;;;;;;6239626;23;20167;-89
2023/08/22 07:51:59;;;;;;;13.68;7.93;;;;;;;;;;6240553;22;20159;-90
2023/08/22 07:55:04;;;;;;;16.50;8.30;;;;;;;;;;6239084;22;20605;-89
2023/08/22 07:58:10;;;;;;;13.45;7.18;;;;;;;;;;6240121;23;20244;-90
2023/08/22 08:01:14;;;;;;;17.92;7.88;;;;;;;;;;6242943;23;20241;-93
2023/08/22 08:04:19;;;;;;;17.08;7.72;;;;;;;;;;6240664;23;20613;-92
2023/08/22 08:07:27;;;;;;;10.60;8.00;;;;;;;;;;6243958;22;20150;-92
2023/08/22 08:10:34;;;;;;;15.60;7.75;;;;;;;;;;6241088;23;20173;-93
2023/08/22 08:13:39;;;;;;;14.02;8.15;;;;;;;;;;6238773;22;20169;-91
2023/08/22 08:16:44;;;;;;;16.38;7.88;;;;;;;;;;6240276;23;20289;-91
2023/08/22 08:19:50;;;;;;;16.98;8.73;;;;;;;;;;6235886;23;20182;-90
2023/08/22 08:22:56;;;;;;;16.45;7.63;;;;;;;;;;6235801;23;20180;-90
2023/08/22 08:26:03;;;;;;;12.00;7.20;;;;;;;;;;6238008;22;20246;-91
2023/08/22 08:29:08;;;;;;;13.50;7.65;;;;;;;;;;6239812;23;20170;-92
2023/08/22 08:32:13;;;;;;;13.95;7.22;;;;;;;;;;6240143;23;20165;-92
2023/08/22 08:35:20;;;;;;;18.33;7.78;;;;;;;;;;6239897;23;20166;-91
2023/08/22 08:38:26;;;;;;;21.63;6.88;;;;;;;;;;6239179;22;20165;-90
2023/08/22 08:41:34;;;;;;;11.38;7.15;;;;;;;;;;6240307;23;20169;-92
2023/08/22 08:44:43;;;;;;;10.55;6.80;;;;;;;;;;6242501;23;20712;-90
2023/08/22 08:47:48;;;;;;;10.13;6.82;;;;;;;;;;6242441;23;20169;-92
2023/08/22 08:50:54;;;;;;;16.02;7.50;;;;;;;;;;6241745;23;20157;-92
2023/08/22 08:54:00;;;;;;;10.98;7.40;;;;;;;;;;6240577;22;20241;-91
2023/08/22 08:57:05;;;;;;;10.10;7.43;;;;;;;;;;6240928;23;20174;-92
2023/08/22 09:00:11;;;;;;;14.85;6.50;;;;;;;;;;6242727;23;20174;-93
2023/08/22 09:03:15;;;;;;;13.65;7.25;;;;;;;;;;6240783;23;20169;-92
2023/08/22 09:06:21;;;;;;;13.48;7.18;;;;;;;;;;6241162;22;20216;-90
2023/08/22 09:09:34;;;;;;;17.38;7.45;;;;;;;;;;6239507;23;20166;-92
2023/08/22 09:12:40;;;;;;;11.05;6.97;;;;;;;;;;6240441;23;20173;-91
2023/08/22 09:15:46;;;;;;;13.35;6.53;;;;;;;;;;6239226;23;20656;-91
2023/08/22 09:18:51;;;;;;;8.75;6.32;;;;;;;;;;6240631;22;20605;-91
2023/08/22 09:21:59;;;;;;;14.85;6.20;;;;;;;;;;6241602;23;20150;-93
2023/08/22 09:25:07;;;;;;;10.65;6.40;;;;;;;;;;6242486;23;20205;-91
2023/08/22 09:28:12;;;;;;;11.93;6.53;;;;;;;;;;6237793;23;20161;-91
2023/08/22 09:31:26;;;;;;;7.15;6.00;;;;;;;;;;6239295;23;20249;-91
2023/08/22 09:34:32;;;;;;;12.32;6.28;;;;;;;;;;6238502;23;20528;-91
2023/08/22 09:37:37;;;;;;;12.50;6.30;;;;;;;;;;6240134;22;20297;-91
2023/08/22 09:40:55;;;;;;;10.63;5.85;;;;;;;;;;6239541;23;20170;-92
2023/08/22 09:44:00;;;;;;;12.55;6.32;;;;;;;;;;6240101;23;20194;-92
2023/08/22 09:47:06;;;;;;;12.57;5.93;;;;;;;;;;6238526;23;20169;-90
2023/08/22 09:50:13;;;;;;;11.00;6.15;;;;;;;;;;6241316;23;20177;-93
2023/08/22 09:53:20;;;;;;;12.65;6.30;;;;;;;;;;6240567;23;20663;-89
2023/08/22 09:56:27;;;;;;;10.23;5.50;;;;;;;;;;6240697;23;20169;-90
2023/08/22 09:59:32;;;;;;;13.88;5.78;;;;;;;;;;6239229;23;20173;-92
2023/08/22 10:02:38;;;;;;;10.18;5.32;;;;;;;;;;6241220;23;20174;-91
2023/08/22 10:05:43;;;;;;;12.13;6.00;;;;;;;;;;6243034;23;20170;-92
2023/08/22 10:08:48;;;;;;;14.57;5.38;;;;;;;;;;6244288;23;20166;-92
2023/08/22 10:12:00;;;;;;;12.20;5.15;;;;;;;;;;6242325;23;20234;-93
2023/08/22 10:15:07;;;;;;;11.10;5.25;;;;;;;;;;6239392;23;20186;-94
2023/08/22 10:18:13;;;;;;;9.23;5.18;;;;;;;;;;6239346;22;20158;-92
2023/08/22 10:21:19;;;;;;;10.13;5.07;;;;;;;;;;6260996;22;20234;-92
2023/08/22 10:24:29;;;;;;;8.32;5.10;;;;;;;;;;6241007;23;20236;-93
2023/08/22 10:27:39;;;;;;;9.25;5.13;;;;;;;;;;6239278;23;20166;-91
2023/08/22 10:31:03;;;;;;;12.52;5.57;;;;;;;;;;6256766;22;20162;-94
2023/08/22 10:34:09;;;;;;;8.07;5.30;;;;;;;;;;6258786;22;20166;-92
2023/08/22 10:37:15;;;;;;;8.75;4.95;;;;;;;;;;6239827;23;20493;-91
2023/08/22 10:40:21;;;;;;;13.35;5.72;;;;;;;;;;6241477;23;20201;-92
2023/08/22 10:43:37;;;;;;;11.35;5.45;;;;;;;;;;6241269;23;20165;-93
2023/08/22 10:47:02;;;;;;;13.90;5.57;;;;;;;;;;6239773;23;20182;-89
2023/08/22 10:50:11;;;;;;;9.68;5.75;;;;;;;;;;6239299;23;20248;-94
2023/08/22 10:53:27;;;;;;;8.43;5.43;;;;;;;;;;6238138;23;20169;-93
2023/08/22 10:56:32;;;;;;;8.77;5.50;;;;;;;;;;6236292;23;20170;-94
2023/08/22 10:59:54;;;;;;;9.23;5.50;;;;;;;;;;6240087;22;20170;-93
2023/08/22 11:03:00;;;;;;;12.20;5.35;;;;;;;;;;6239424;23;20170;-91
2023/08/22 11:06:12;;;;;;;10.77;5.40;;;;;;;;;;6241516;23;20248;-95
2023/08/22 11:09:18;;;;;;;13.07;5.65;;;;;;;;;;6236140;23;20713;-93
2023/08/22 11:12:24;;;;;;;8.88;4.90;;;;;;;;;;6238903;23;20160;-94
2023/08/22 11:15:31;;;;;;;12.32;5.07;;;;;;;;;;6238112;23;20194;-94
2023/08/22 11:18:35;;;;;;;17.95;4.93;;;;;;;;;;6239531;23;20614;-93
2023/08/22 11:21:41;;;;;;;7.70;4.47;;;;;;;;;;6242624;23;20171;-93
2023/08/22 11:24:48;;;;;;;10.80;4.55;;;;;;;;;;6239537;23;20168;-93
2023/08/22 11:27:53;;;;;;;14.65;4.90;;;;;;;;;;6242681;22;20165;-91
2023/08/22 11:31:01;;;;;;;9.43;4.70;;;;;;;;;;6237432;22;20216;-91
2023/08/22 11:34:06;;;;;;;10.40;4.97;;;;;;;;;;6240810;23;20158;-92
2023/08/22 11:37:12;;;;;;;7.75;4.50;;;;;;;;;;6240953;22;20170;-94
2023/08/22 11:40:17;;;;;;;12.00;4.88;;;;;;;;;;6239973;23;20161;-92
2023/08/22 11:43:22;;;;;;;7.20;4.57;;;;;;;;;;6238931;22;20610;-93
2023/08/22 11:46:33;;;;;;;8.50;4.80;;;;;;;;;;6236246;23;20229;-94
2023/08/22 11:49:58;;;;;;;8.10;4.68;;;;;;;;;;6256716;22;20173;-93
2023/08/22 11:53:11;;;;;;;9.55;4.20;;;;;;;;;;6236990;23;20162;-92
2023/08/22 11:56:16;;;;;;;11.00;4.32;;;;;;;;;;6240047;22;20550;-96
2023/08/22 11:59:22;;;;;;;10.82;4.25;;;;;;;;;;6237795;23;20196;-94
2023/08/22 12:02:28;;;;;;;8.25;4.20;;;;;;;;;;6240469;23;20170;-93
2023/08/22 12:05:34;;;;;;;10.82;4.68;;;;;;;;;;6241368;22;20166;-93
2023/08/22 12:08:40;;;;;;;7.20;4.43;;;;;;;;;;6237827;22;20640;-91
2023/08/22 12:11:45;;;;;;;8.00;4.00;;;;;;;;;;6239608;23;20178;-92
2023/08/22 12:14:50;;;;;;;12.13;4.60;;;;;;;;;;6242991;23;20209;-92
2023/08/22 12:17:59;;;;;;;10.73;4.50;;;;;;;;;;6242643;23;20608;-91
2023/08/22 12:21:04;;;;;;;12.80;4.38;;;;;;;;;;6240129;22;20609;-92
2023/08/22 12:24:09;;;;;;;14.73;4.78;;;;;;;;;;6239895;22;20176;-93
2023/08/22 12:27:14;;;;;;;11.25;4.10;;;;;;;;;;6238701;22;20173;-92
2023/08/22 12:30:19;;;;;;;9.35;4.28;;;;;;;;;;6238943;23;20169;-92
2023/08/22 12:33:26;;;;;;;7.25;4.22;;;;;;;;;;6238189;23;20166;-92
2023/08/22 12:36:31;;;;;;;6.07;4.57;;;;;;;;;;6258194;23;20194;-92
2023/08/22 12:39:37;;;;;;;14.52;5.55;;;;;;;;;;6244744;22;20154;-90
2023/08/22 12:42:42;;;;;;;7.18;4.85;;;;;;;;;;6240210;23;20237;-92
2023/08/22 12:45:48;;;;;;;11.27;5.15;;;;;;;;;;6240994;23;20185;-91
2023/08/22 12:48:54;;;;;;;14.70;4.68;;;;;;;;;;6236066;23;20167;-92
2023/08/22 12:52:00;;;;;;;9.77;4.90;;;;;;;;;;6239120;23;20157;-93
2023/08/22 12:55:07;;;;;;;9.15;5.10;;;;;;;;;;6237394;23;20173;-91
2023/08/22 12:58:12;;;;;;;14.43;5.63;;;;;;;;;;6238715;23;20182;-92
2023/08/22 13:01:20;;;;;;;14.43;5.20;;;;;;;;;;6241561;23;20645;-92
2023/08/22 13:04:28;;;;;;;7.35;4.63;;;;;;;;;;6259113;22;20236;-95
2023/08/22 13:07:33;;;;;;;12.65;4.95;;;;;;;;;;6239743;22;20166;-92
2023/08/22 13:10:39;;;;;;;11.93;4.80;;;;;;;;;;6241757;22;20214;-94
2023/08/22 13:13:44;;;;;;;12.48;4.90;;;;;;;;;;6239509;22;20616;-93
2023/08/22 13:16:50;;;;;;;13.20;5.45;;;;;;;;;;6239354;23;20198;-92
2023/08/22 13:19:56;;;;;;;14.05;5.15;;;;;;;;;;6239887;23;20222;-91
2023/08/22 13:23:01;;;;;;;9.73;5.75;;;;;;;;;;6237351;23;20580;-91
2023/08/22 13:26:06;;;;;;;16.35;5.65;;;;;;;;;;6238315;23;20212;-91
2023/08/22 13:29:11;;;;;;;9.95;5.15;;;;;;;;;;6237606;23;20170;-92
2023/08/22 13:32:17;;;;;;;11.60;5.70;;;;;;;;;;6239706;23;20255;-91
2023/08/22 13:35:23;;;;;;;10.57;5.80;;;;;;;;;;6238946;23;20260;-93
2023/08/22 13:38:28;;;;;;;19.13;6.18;;;;;;;;;;6239840;23;20162;-89
2023/08/22 13:41:33;;;;;;;11.23;5.53;;;;;;;;;;6240009;22;20166;-95
2023/08/22 13:44:38;;;;;;;16.58;6.43;;;;;;;;;;6239929;22;20297;-90
2023/08/22 13:47:44;;;;;;;12.35;6.50;;;;;;;;;;6240329;23;20296;-92
2023/08/22 13:50:50;;;;;;;12.15;5.85;;;;;;;;;;6239082;23;20232;-90
2023/08/22 13:53:55;;;;;;;14.00;5.70;;;;;;;;;;6239912;23;20169;-92
2023/08/22 13:57:01;;;;;;;13.38;5.57;;;;;;;;;;6239104;22;20189;-89
2023/08/22 14:00:06;;;;;;;10.88;5.88;;;;;;;;;;6239228;22;20161;-93
2023/08/22 14:03:11;;;;;;;19.40;6.82;;;;;;;;;;6241257;22;20169;-90
2023/08/22 14:06:17;;;;;;;10.85;5.82;;;;;;;;;;6242829;23;20166;-91
2023/08/22 14:09:22;;;;;;;13.48;6.05;;;;;;;;;;6238654;23;20336;-91
2023/08/22 14:12:27;;;;;;;15.85;6.68;;;;;;;;;;6237474;23;20285;-91
2023/08/22 14:15:32;;;;;;;14.18;6.03;;;;;;;;;;6240989;22;20250;-93
2023/08/22 14:18:37;;;;;;;14.88;6.55;;;;;;;;;;6238869;22;20167;-93
2023/08/22 14:21:44;;;;;;;14.38;5.78;;;;;;;;;;6240639;23;20255;-91
2023/08/22 14:24:49;;;;;;;12.88;5.50;;;;;;;;;;6239016;22;20166;-92
2023/08/22 14:27:55;;;;;;;12.98;5.57;;;;;;;;;;6240938;22;20177;-92
2023/08/22 14:31:00;;;;;;;11.40;5.63;;;;;;;;;;6241705;23;20161;-92
2023/08/22 14:34:17;;;;;;;10.90;5.90;;;;;;;;;;6244516;23;20162;-95
2023/08/22 14:37:24;;;;;;;12.02;5.88;;;;;;;;;;6240629;23;20701;-92
2023/08/22 14:40:29;;;;;;;13.25;5.75;;;;;;;;;;6242508;22;20146;-92
2023/08/22 14:43:36;;;;;;;9.55;5.25;;;;;;;;;;6238631;22;20170;-93
2023/08/22 14:46:40;;;;;;;11.27;5.80;;;;;;;;;;6241977;22;20169;-92
2023/08/22 14:49:45;;;;;;;13.27;6.40;;;;;;;;;;6239704;22;20170;-91
2023/08/22 14:52:53;;;;;;;12.07;6.60;;;;;;;;;;6240441;23;20161;-92
2023/08/22 14:55:59;;;;;;;12.10;6.03;;;;;;;;;;6240146;23;20189;-92
2023/08/22 14:59:12;;;;;;;11.00;5.90;;;;;;;;;;6238027;23;20548;-94
2023/08/22 15:02:17;;;;;;;13.77;6.20;;;;;;;;;;6241396;22;20158;-93
2023/08/22 15:05:22;;;;;;;11.40;5.47;;;;;;;;;;6240141;22;20248;-93
2023/08/22 15:08:30;;;;;;;22.33;6.07;;;;;;;;;;6238032;23;20162;-92
2023/08/22 15:11:35;;;;;;;13.43;5.93;;;;;;;;;;6241959;22;20150;-91
2023/08/22 15:14:41;;;;;;;10.75;6.57;;;;;;;;;;6242625;23;20203;-93
2023/08/22 15:17:46;;;;;;;11.95;6.05;;;;;;;;;;6239750;22;20150;-92
2023/08/22 15:20:52;;;;;;;9.30;5.85;;;;;;;;;;6241657;23;20170;-91
2023/08/22 15:23:58;;;;;;;13.82;5.85;;;;;;;;;;6238648;22;20162;-89
2023/08/22 15:27:03;;;;;;;12.18;5.82;;;;;;;;;;6239425;23;20174;-91
2023/08/22 15:30:10;;;;;;;12.77;6.28;;;;;;;;;;6239794;23;20166;-93
2023/08/22 15:33:15;;;;;;;12.07;6.15;;;;;;;;;;6238927;22;20170;-91
2023/08/22 15:36:20;;;;;;;13.30;6.38;;;;;;;;;;6243601;22;20710;-90
2023/08/22 15:39:27;;;;;;;14.48;6.97;;;;;;;;;;6244965;22;20162;-92
2023/08/22 15:42:34;;;;;;;12.82;6.32;;;;;;;;;;6241845;23;20244;-93
2023/08/22 15:45:39;;;;;;;14.35;6.80;;;;;;;;;;6238989;23;20263;-92
2023/08/22 15:48:45;;;;;;;10.95;6.50;;;;;;;;;;6237403;23;20486;-92
2023/08/22 15:51:50;;;;;;;12.52;6.80;;;;;;;;;;6237365;22;20169;-91
2023/08/22 15:54:59;;;;;;;10.05;6.28;;;;;;;;;;6240373;22;20166;-90
2023/08/22 15:58:04;;;;;;;16.20;6.97;;;;;;;;;;6239011;22;20188;-91
2023/08/22 16:01:09;;;;;;;12.40;6.88;;;;;;;;;;6242031;23;20676;-92
2023/08/22 16:04:13;;;;;;;14.77;8.77;;;;;;;;;;6239287;23;20293;-93
2023/08/22 16:07:20;;;;;;;13.93;6.88;;;;;;;;;;6247044;23;20149;-92
2023/08/22 16:10:27;;;;;;;11.60;6.55;;;;;;;;;;6242718;22;20145;-92
2023/08/22 16:13:34;;;;;;;15.43;7.43;;;;;;;;;;6258546;22;20166;-91
2023/08/22 16:16:41;;;;;;;15.55;6.78;;;;;;;;;;6242677;23;20192;-93
2023/08/22 16:19:47;;;;;;;11.98;6.53;;;;;;;;;;6241947;23;20468;-92
2023/08/22 16:22:52;;;;;;;12.77;6.93;;;;;;;;;;6240060;22;20146;-93
2023/08/22 16:26:00;;;;;;;16.70;7.20;;;;;;;;;;6240504;22;20214;-94
2023/08/22 16:29:05;;;;;;;18.17;7.38;;;;;;;;;;6242804;22;20200;-94
2023/08/22 16:32:10;;;;;;;14.18;7.07;;;;;;;;;;6243352;23;20166;-92
2023/08/22 16:35:15;;;;;;;20.88;6.97;;;;;;;;;;6241768;23;20617;-92
2023/08/22 16:38:21;;;;;;;16.98;7.05;;;;;;;;;;6240350;22;20173;-91
2023/08/22 16:41:27;;;;;;;14.65;7.10;;;;;;;;;;6237785;22;20169;-94
2023/08/22 16:44:32;;;;;;;14.88;7.20;;;;;;;;;;6241240;23;20284;-92
2023/08/22 16:47:38;;;;;;;12.38;6.68;;;;;;;;;;6247577;23;20379;-93
2023/08/22 16:50:47;;;;;;;12.20;6.97;;;;;;;;;;6246736;23;20561;-94
2023/08/22 16:53:52;;;;;;;15.00;6.72;;;;;;;;;;6243581;22;20165;-90
2023/08/22 16:56:59;;;;;;;13.27;7.35;;;;;;;;;;6243817;22;20193;-92
2023/08/22 17:00:11;;;;;;;12.75;7.53;;;;;;;;;;6242587;23;20217;-92
2023/08/22 17:03:19;;;;;;;12.15;7.45;;;;;;;;;;6243904;23;20189;-93
2023/08/22 17:06:27;;;;;;;19.10;7.75;;;;;;;;;;6240474;23;20233;-92
2023/08/22 17:09:32;;;;;;;15.13;7.32;;;;;;;;;;6240289;23;20170;-90
2023/08/22 17:12:38;;;;;;;11.98;7.10;;;;;;;;;;6241326;22;20178;-92
2023/08/22 17:15:44;;;;;;;18.70;7.75;;;;;;;;;;6240518;23;20170;-92
2023/08/22 17:18:49;;;;;;;12.88;7.43;;;;;;;;;;6243309;23;20162;-91
2023/08/22 17:21:57;;;;;;;10.70;6.95;;;;;;;;;;6240539;23;20278;-93
2023/08/22 17:25:07;;;;;;;15.25;7.65;;;;;;;;;;6240638;22;20159;-93
2023/08/22 17:28:14;;;;;;;15.23;8.15;;;;;;;;;;6240294;22;20213;-92
2023/08/22 17:31:19;;;;;;;15.63;7.45;;;;;;;;;;6240728;23;20237;-93
2023/08/22 17:34:24;;;;;;;12.65;7.60;;;;;;;;;;6241587;23;20194;-92
2023/08/22 17:37:29;;;;;;;12.38;7.10;;;;;;;;;;6241580;23;20573;-93
2023/08/22 17:40:35;;;;;;;15.23;8.20;;;;;;;;;;6241418;23;20617;-92
2023/08/22 17:43:43;;;;;;;20.63;8.13;;;;;;;;;;6242723;22;20170;-92
2023/08/22 17:46:48;;;;;;;15.95;8.70;;;;;;;;;;6243349;22;20189;-91
2023/08/22 17:49:53;;;;;;;16.15;8.15;;;;;;;;;;6242743;23;20166;-94
2023/08/22 17:53:05;;;;;;;15.10;7.88;;;;;;;;;;6242972;22;20170;-93
2023/08/22 17:56:11;;;;;;;18.10;8.27;;;;;;;;;;6241473;22;20175;-91
2023/08/22 17:59:17;;;;;;;16.48;9.38;;;;;;;;;;6244398;22;20158;-92
2023/08/22 18:02:22;;;;;;;21.73;10.65;;;;;;;;;;6243999;23;20182;-91
2023/08/22 18:05:30;;;;;;;20.38;10.80;;;;;;;;;;6243109;23;20170;-91
2023/08/22 18:08:36;;;;;;;17.90;10.40;;;;;;;;;;6245660;23;20154;-92
2023/08/22 18:11:41;;;;;;;16.00;9.52;;;;;;;;;;6244039;22;20174;-92
2023/08/22 18:14:48;;;;;;;19.05;9.52;;;;;;;;;;6245485;22;20159;-91
2023/08/22 18:17:55;;;;;;;14.90;9.38;;;;;;;;;;6243845;22;20194;-92
2023/08/22 18:21:03;;;;;;;17.20;9.80;;;;;;;;;;6242658;23;20185;-92